Aledo, IL

3:48 AM CDT on August 29, 2016 (GMT -0500)
NW Aledo Illinois | | Change Station
Active Advisory: Flood Watch

Elev 720 ft 41.21 °N, 90.76 °W | Updated 5 minutes ago

Clear
Clear
69.1 °F
Feels Like 69.1 °F
N
0.0
Wind Variable Wind from East
Gusts 0.0 mph

Today
High -- | Low -- °F
--% Chance of Precip.
Yesterday
High -- | Low -- °F
Precip. -- in
Pressure 30.16 in
Visibility 10.0 miles
Clouds Clear
Dew Point 67 °F
Humidity 93%
Rainfall 0.00 in
Snow Depth Not available.
6:27 AM 7:39 PM
Waning Crescent, 10% visible
METAR KMLI 290752Z AUTO 11004KT 10SM CLR 21/19 A3017 RMK AO2 SLP213 T02110194
Pressure 30.16 in
Visibility 10.0 miles
Clouds Clear
Dew Point 67 °F
Humidity 93%
Rainfall 0.00 in
Snow Depth Not available.
6:27 AM 7:39 PM
Waning Crescent, 10% visible
METAR KMLI 290752Z AUTO 11004KT 10SM CLR 21/19 A3017 RMK AO2 SLP213 T02110194

10-Day Weather Forecast

Almanac

Astronomy

Aug. 29, 2016 Rise Set
Actual Time
Civil Twilight
Nautical Twilight
Astronomical Twilight
Moon
Length of Visible Light
Length of Day
Tomorrow will be .
, % of the Moon is Illuminated

Today's Extremes

State Highs State Lows

Community

WunderPhotos

Upload Photos

1,935,800 photos uploaded!

WunderBlog® & News

Nearby

Air Quality

  Air Quality AQ Index Pollutant
Not available.

Snow Depth

Station Depth Elevation

Earthquake Activity

City Distance Mag. Time & Date
Minimum magnitude displayed is 2.5.

Coastal Water Temperatures

Place Temperature

Stations

Nearby Weather Stations

Station Location Temp. Windchill Dew Point Humidity Wind Precip. Elev Updated Type
                   

Watches & Warnings

Flood Watch
Issued: 3:45 AM CDT Aug. 29, 2016 – National Weather Service

The Flood Watch continues for
the Mississippi River at Keithsburg
* until Friday.
* At 2:30 am Monday the stage was 12.6 feet.
* Flood stage is 14.0 feet.
* Minor flooding is possible.
* Forecast... rise above flood stage Wednesday evening... and continue
rising to 14.2 feet Thursday morning. Fall below flood stage
Friday.
* This is based on moderate confidence in the river reaching flood
stage. Forecasts may change so monitor for updated information.


Lat... Lon 4116 9097 4117 9106 4094 9099 4091 9094
      4108 9091